createdAt,value
2022-10-08T00:01:26.982Z,11.50
2022-10-08T00:03:56.597Z,11.50
2022-10-08T00:06:26.808Z,11.50
2022-10-08T00:08:56.360Z,11.50
2022-10-08T00:11:27.683Z,11.50
2022-10-08T00:13:56.399Z,11.40
2022-10-08T00:16:26.360Z,11.30
2022-10-08T00:18:56.293Z,11.30
2022-10-08T00:21:26.603Z,11.30
2022-10-08T00:23:58.151Z,11.30
2022-10-08T00:26:29.603Z,11.30
2022-10-08T00:28:59.856Z,11.20
2022-10-08T00:31:29.586Z,11.20
2022-10-08T00:33:59.650Z,11.20
2022-10-08T00:36:31.403Z,11.10
2022-10-08T00:39:00.756Z,11.10
2022-10-08T00:41:32.811Z,11.10
2022-10-08T00:44:03.272Z,11.10
2022-10-08T00:46:36.533Z,11.10
2022-10-08T00:49:07.849Z,11.10
2022-10-08T00:51:35.836Z,11.10
2022-10-08T00:54:05.372Z,11.10
2022-10-08T00:56:38.306Z,11.00
2022-10-08T00:59:07.056Z,11.10
2022-10-08T01:01:35.902Z,11.10
2022-10-08T01:04:06.663Z,11.00
2022-10-08T01:06:44.857Z,11.00
2022-10-08T01:09:19.185Z,11.00
2022-10-08T01:11:53.738Z,11.00
2022-10-08T01:14:33.478Z,11.00
2022-10-08T01:17:08.137Z,11.00
2022-10-08T01:19:57.619Z,11.00
2022-10-08T01:22:39.351Z,11.00
2022-10-08T01:25:34.092Z,11.00
2022-10-08T01:28:08.427Z,11.10
2022-10-08T01:30:39.927Z,11.10
2022-10-08T01:33:14.065Z,11.10
2022-10-08T01:35:46.177Z,11.10
2022-10-08T01:38:20.261Z,11.10
2022-10-08T01:40:52.067Z,11.20
2022-10-08T01:43:24.335Z,11.20
2022-10-08T01:45:58.468Z,11.20
2022-10-08T01:48:34.076Z,11.20
2022-10-08T01:51:07.847Z,11.20
2022-10-08T01:53:41.641Z,11.20
2022-10-08T01:56:13.072Z,11.20
2022-10-08T01:58:49.940Z,11.20
2022-10-08T02:01:24.876Z,11.20
2022-10-08T02:04:10.639Z,11.20
2022-10-08T02:06:42.046Z,11.20
2022-10-08T02:09:11.381Z,11.20
2022-10-08T02:11:39.455Z,11.20
2022-10-08T02:14:11.828Z,11.20
2022-10-08T02:16:49.210Z,11.20
2022-10-08T02:19:25.429Z,11.20
2022-10-08T02:21:56.094Z,11.20
2022-10-08T02:24:31.484Z,11.20
2022-10-08T02:27:04.920Z,11.20
2022-10-08T02:29:38.747Z,11.30
2022-10-08T02:32:11.187Z,11.20
2022-10-08T02:34:45.363Z,11.20
2022-10-08T02:37:18.309Z,11.30
2022-10-08T02:39:51.989Z,11.30
2022-10-08T02:42:23.931Z,11.20
2022-10-08T02:44:57.758Z,11.20
2022-10-08T02:47:30.622Z,11.20
2022-10-08T02:50:02.647Z,11.20
2022-10-08T02:52:36.802Z,11.20
2022-10-08T02:55:11.817Z,11.20
2022-10-08T02:57:45.804Z,11.20
2022-10-08T03:00:15.626Z,11.20
2022-10-08T03:02:51.675Z,11.20
2022-10-08T03:05:22.043Z,11.20
2022-10-08T03:07:52.432Z,11.20
2022-10-08T03:10:24.512Z,11.20
2022-10-08T03:12:52.869Z,11.20
2022-10-08T03:15:22.207Z,11.20
2022-10-08T03:17:50.244Z,11.20
2022-10-08T03:20:18.480Z,11.20
2022-10-08T03:22:46.842Z,11.20
2022-10-08T03:25:14.964Z,11.20
2022-10-08T03:27:42.831Z,11.20
2022-10-08T03:30:12.423Z,11.30
2022-10-08T03:32:41.686Z,11.20
2022-10-08T03:35:09.587Z,11.30
2022-10-08T03:37:37.976Z,11.30
2022-10-08T03:40:06.944Z,11.30
2022-10-08T03:42:34.826Z,11.30
2022-10-08T03:45:02.713Z,11.20
2022-10-08T03:47:30.805Z,11.20
2022-10-08T03:50:00.082Z,11.20
2022-10-08T03:52:27.922Z,11.30
2022-10-08T03:54:55.832Z,11.30
2022-10-08T03:57:23.766Z,11.30
2022-10-08T03:59:51.676Z,11.30
2022-10-08T04:02:19.571Z,11.30
2022-10-08T04:04:47.480Z,11.30
2022-10-08T04:07:16.668Z,11.30
2022-10-08T04:09:44.513Z,11.30
2022-10-08T04:12:12.432Z,11.40
2022-10-08T04:14:40.336Z,11.40
2022-10-08T04:17:08.280Z,11.40
2022-10-08T04:19:36.194Z,11.40
2022-10-08T04:22:04.151Z,11.40
2022-10-08T04:24:33.478Z,11.40
2022-10-08T04:27:01.349Z,11.40
2022-10-08T04:29:29.187Z,11.30
2022-10-08T04:31:57.055Z,11.30
2022-10-08T04:34:24.972Z,11.20
2022-10-08T04:36:52.829Z,11.20
2022-10-08T04:39:20.667Z,11.20
2022-10-08T04:41:50.032Z,11.20
2022-10-08T04:44:17.933Z,11.10
2022-10-08T04:46:45.852Z,11.20
2022-10-08T04:49:13.979Z,11.20
2022-10-08T04:51:41.831Z,11.10
2022-10-08T04:54:09.839Z,11.10
2022-10-08T04:56:37.812Z,11.10
2022-10-08T04:59:07.041Z,11.10
2022-10-08T05:01:35.026Z,11.00
2022-10-08T05:04:03.080Z,11.00
2022-10-08T05:06:32.754Z,11.00
2022-10-08T05:09:03.046Z,11.00
2022-10-08T05:11:32.052Z,10.90
2022-10-08T05:14:00.703Z,10.90
2022-10-08T05:16:30.075Z,10.90
2022-10-08T05:18:59.405Z,10.90
2022-10-08T05:21:29.167Z,10.90
2022-10-08T05:23:58.090Z,10.80
2022-10-08T05:26:46.638Z,10.80
2022-10-08T05:29:16.154Z,10.80
2022-10-08T05:31:45.605Z,10.80
2022-10-08T05:34:14.255Z,10.80
2022-10-08T05:36:42.336Z,10.80
2022-10-08T05:39:11.363Z,10.80
2022-10-08T05:41:39.332Z,10.80
2022-10-08T05:44:08.142Z,10.90
2022-10-08T05:46:37.833Z,10.90
2022-10-08T05:49:09.142Z,10.90
2022-10-08T05:51:38.424Z,10.90
2022-10-08T05:54:06.472Z,10.90
2022-10-08T05:56:34.500Z,11.00
2022-10-08T05:59:02.473Z,11.00
2022-10-08T06:01:32.365Z,11.00
2022-10-08T06:04:08.509Z,11.10
2022-10-08T06:06:39.304Z,11.10
2022-10-08T06:09:08.593Z,11.10
2022-10-08T06:11:37.975Z,11.10
2022-10-08T06:14:07.923Z,11.10
2022-10-08T06:16:36.129Z,11.20
2022-10-08T06:19:04.255Z,11.20
2022-10-08T06:21:33.224Z,11.30
2022-10-08T06:24:04.702Z,11.20
2022-10-08T06:26:36.172Z,11.20
2022-10-08T06:29:06.444Z,11.30
2022-10-08T06:31:35.031Z,11.30
2022-10-08T06:34:04.110Z,11.40
2022-10-08T06:36:32.812Z,11.50
2022-10-08T06:39:04.782Z,11.70
2022-10-08T06:41:34.742Z,11.60
2022-10-08T06:44:03.051Z,11.60
2022-10-08T06:46:32.542Z,11.70
2022-10-08T06:49:01.614Z,11.70
2022-10-08T06:51:30.827Z,11.80
2022-10-08T06:54:06.620Z,12.00
2022-10-08T06:56:38.180Z,12.40
2022-10-08T06:59:07.353Z,12.50
2022-10-08T07:01:36.435Z,12.60
2022-10-08T07:04:06.612Z,12.90
2022-10-08T07:06:34.695Z,13.90
2022-10-08T07:09:04.029Z,15.40
2022-10-08T07:11:33.382Z,17.20
2022-10-08T07:14:03.090Z,18.50
2022-10-08T07:16:31.086Z,19.30
2022-10-08T07:18:59.588Z,18.70
2022-10-08T07:21:29.265Z,18.30
2022-10-08T07:23:59.157Z,17.20
2022-10-08T07:26:29.153Z,16.70
2022-10-08T07:28:59.196Z,16.70
2022-10-08T07:31:31.175Z,16.10
2022-10-08T07:33:59.710Z,16.70
2022-10-08T07:36:29.304Z,17.50
2022-10-08T07:38:58.702Z,17.90
2022-10-08T07:41:27.178Z,18.50
2022-10-08T07:43:58.327Z,19.20
2022-10-08T07:46:28.325Z,19.80
2022-10-08T07:48:58.945Z,19.50
2022-10-08T07:51:28.048Z,19.40
2022-10-08T07:54:00.260Z,18.70
2022-10-08T07:56:30.501Z,19.40
2022-10-08T07:58:59.504Z,19.70
2022-10-08T08:01:30.082Z,19.80
2022-10-08T08:04:00.093Z,20.20
2022-10-08T08:06:28.018Z,20.80
2022-10-08T08:08:55.937Z,21.20
2022-10-08T08:11:25.309Z,20.90
2022-10-08T08:13:54.279Z,21.70
2022-10-08T08:16:25.385Z,21.50
2022-10-08T08:18:56.504Z,21.00
2022-10-08T08:21:26.307Z,21.60
2022-10-08T08:23:56.310Z,21.80
2022-10-08T08:26:25.781Z,21.60
2022-10-08T08:28:54.795Z,20.70
2022-10-08T08:31:25.277Z,20.30
2022-10-08T08:33:57.224Z,20.80
2022-10-08T08:36:27.611Z,21.40
2022-10-08T08:38:55.583Z,21.10
2022-10-08T08:41:47.129Z,21.90
2022-10-08T08:44:21.829Z,22.10
2022-10-08T08:46:55.106Z,21.40
2022-10-08T08:49:30.897Z,21.10
2022-10-08T08:52:01.435Z,21.60
2022-10-08T08:54:29.375Z,22.20
2022-10-08T08:57:10.801Z,22.60
2022-10-08T08:59:43.930Z,23.80
2022-10-08T09:02:20.828Z,23.80
2022-10-08T09:04:53.687Z,22.40
2022-10-08T09:07:25.963Z,21.90
2022-10-08T09:09:56.407Z,21.70
2022-10-08T09:12:38.381Z,22.30
2022-10-08T09:15:15.722Z,21.80
2022-10-08T09:17:43.821Z,21.00
2022-10-08T09:20:18.201Z,20.90
2022-10-08T09:22:46.753Z,21.00
2022-10-08T09:25:17.573Z,21.50
2022-10-08T09:27:47.579Z,20.90
2022-10-08T09:30:37.723Z,20.50
2022-10-08T09:33:18.663Z,20.40
2022-10-08T09:35:50.058Z,19.50
2022-10-08T09:38:28.879Z,19.90
2022-10-08T09:41:05.557Z,19.70
2022-10-08T09:43:34.380Z,18.90
2022-10-08T09:46:05.584Z,17.90
2022-10-08T09:48:33.556Z,17.00
2022-10-08T09:51:05.677Z,16.50
2022-10-08T09:53:40.677Z,16.30
2022-10-08T09:56:09.921Z,16.20
2022-10-08T09:58:50.667Z,16.30
2022-10-08T10:01:19.972Z,16.80
2022-10-08T10:03:54.017Z,16.90
2022-10-08T10:06:33.130Z,17.10
2022-10-08T10:09:07.100Z,16.90
2022-10-08T10:11:39.641Z,16.20
2022-10-08T10:14:15.340Z,16.10
2022-10-08T10:16:45.835Z,16.30
2022-10-08T10:19:19.300Z,16.70
2022-10-08T10:21:54.134Z,16.90
2022-10-08T10:24:45.716Z,16.90
2022-10-08T10:27:17.129Z,17.00
2022-10-08T10:29:52.294Z,16.80
2022-10-08T10:32:23.944Z,16.60
2022-10-08T10:35:00.114Z,16.40
2022-10-08T10:37:37.684Z,16.20
2022-10-08T10:40:27.734Z,16.20
2022-10-08T10:43:01.778Z,16.10
2022-10-08T10:45:34.949Z,15.90
2022-10-08T10:48:03.504Z,16.00
2022-10-08T10:50:41.921Z,16.10
2022-10-08T10:53:20.370Z,16.00
2022-10-08T10:55:55.849Z,16.00
2022-10-08T10:58:37.493Z,15.90
2022-10-08T11:01:16.889Z,15.90
2022-10-08T11:03:51.956Z,16.00
2022-10-08T11:06:42.471Z,16.00
2022-10-08T11:09:21.944Z,16.10
2022-10-08T11:11:53.421Z,15.90
2022-10-08T11:14:38.732Z,15.80
2022-10-08T11:17:21.920Z,15.60
2022-10-08T11:19:57.376Z,15.60
2022-10-08T11:22:35.247Z,15.50
2022-10-08T11:25:23.821Z,15.40
2022-10-08T11:28:06.111Z,15.40
2022-10-08T11:30:43.128Z,15.30
2022-10-08T11:33:13.610Z,15.30
2022-10-08T11:35:47.413Z,15.30
2022-10-08T11:38:23.478Z,15.20
2022-10-08T11:40:56.880Z,15.10
2022-10-08T11:43:31.577Z,14.90
2022-10-08T11:46:28.419Z,14.80
2022-10-08T11:48:57.994Z,14.70
2022-10-08T11:51:39.552Z,14.40
2022-10-08T11:54:12.367Z,14.10
2022-10-08T11:56:44.373Z,14.00
2022-10-08T11:59:29.760Z,13.90
2022-10-08T12:02:00.318Z,13.80
2022-10-08T12:04:34.621Z,13.90
2022-10-08T12:07:21.831Z,13.90
2022-10-08T12:10:21.615Z,14.00
2022-10-08T12:13:26.076Z,14.00
2022-10-08T12:15:55.803Z,14.20
2022-10-08T12:18:52.184Z,14.40
2022-10-08T12:21:49.399Z,14.60
2022-10-08T12:24:56.312Z,15.00
2022-10-08T12:27:39.891Z,15.10
2022-10-08T12:30:11.595Z,15.00
2022-10-08T12:32:58.518Z,15.00
2022-10-08T12:35:30.139Z,15.20
2022-10-08T12:38:16.444Z,15.40
2022-10-08T12:40:50.180Z,15.70
2022-10-08T12:43:25.942Z,15.70
2022-10-08T12:46:03.640Z,15.80
2022-10-08T12:48:41.352Z,15.60
2022-10-08T12:51:25.817Z,15.50
2022-10-08T12:53:54.666Z,15.40
2022-10-08T12:56:28.091Z,15.40
2022-10-08T12:58:59.276Z,15.40
2022-10-08T13:01:29.268Z,15.20
2022-10-08T13:04:18.314Z,15.10
2022-10-08T13:06:46.884Z,15.10
2022-10-08T13:09:27.250Z,15.60
2022-10-08T13:12:02.832Z,15.90
2022-10-08T13:14:33.269Z,16.20
2022-10-08T13:17:03.111Z,16.40
2022-10-08T13:19:33.432Z,16.30
2022-10-08T13:22:05.031Z,16.00
2022-10-08T13:24:41.021Z,15.80
2022-10-08T13:27:24.026Z,15.80
2022-10-08T13:29:52.090Z,16.30
2022-10-08T13:32:23.268Z,16.80
2022-10-08T13:34:53.236Z,17.10
2022-10-08T13:37:30.952Z,17.00
2022-10-08T13:40:00.929Z,17.00
2022-10-08T13:42:31.535Z,16.80
2022-10-08T13:45:00.719Z,16.80
2022-10-08T13:47:30.086Z,16.80
2022-10-08T13:50:01.900Z,17.00
2022-10-08T13:52:31.838Z,16.80
2022-10-08T13:55:03.231Z,16.80
2022-10-08T13:57:32.059Z,16.90
2022-10-08T14:00:00.060Z,16.90
2022-10-08T14:02:29.222Z,16.50
2022-10-08T14:04:57.214Z,16.40
2022-10-08T14:07:28.960Z,16.50
2022-10-08T14:09:58.260Z,16.70
2022-10-08T14:12:29.982Z,16.60
2022-10-08T14:14:58.032Z,16.50
2022-10-08T14:17:26.264Z,16.60
2022-10-08T14:19:55.652Z,16.70
2022-10-08T14:22:23.829Z,16.60
2022-10-08T14:24:52.436Z,16.70
2022-10-08T14:27:20.268Z,16.90
2022-10-08T14:29:48.203Z,16.90
2022-10-08T14:32:16.136Z,16.70
2022-10-08T14:34:44.085Z,16.50
2022-10-08T14:37:13.307Z,16.50
2022-10-08T14:39:41.163Z,16.40
2022-10-08T14:42:09.024Z,16.10
2022-10-08T14:44:37.024Z,15.90
2022-10-08T14:47:04.942Z,15.90
2022-10-08T14:49:32.923Z,15.70
2022-10-08T14:52:01.003Z,14.70
2022-10-08T14:54:30.220Z,13.50
2022-10-08T14:56:58.460Z,12.00
2022-10-08T14:59:26.350Z,11.50
2022-10-08T15:01:54.361Z,11.40
2022-10-08T15:04:22.272Z,11.30
2022-10-08T15:06:50.175Z,11.30
2022-10-08T15:09:18.016Z,11.40
2022-10-08T15:11:47.249Z,11.70
2022-10-08T15:14:15.583Z,12.10
2022-10-08T15:16:43.882Z,12.40
2022-10-08T15:19:12.295Z,12.60
2022-10-08T15:21:40.184Z,12.60
2022-10-08T15:24:08.440Z,12.60
2022-10-08T15:26:36.501Z,12.60
2022-10-08T15:29:05.931Z,12.60
2022-10-08T15:31:33.919Z,12.60
2022-10-08T15:34:01.941Z,12.50
2022-10-08T15:36:32.278Z,12.50
2022-10-08T15:39:01.858Z,12.50
2022-10-08T15:41:32.063Z,12.50
2022-10-08T15:44:10.643Z,12.50
2022-10-08T15:46:38.822Z,12.50
2022-10-08T15:49:07.133Z,12.60
2022-10-08T15:51:35.305Z,12.60
2022-10-08T15:54:03.578Z,12.60
2022-10-08T15:56:32.208Z,12.60
2022-10-08T15:59:01.332Z,12.50
2022-10-08T16:01:31.006Z,12.50
2022-10-08T16:04:01.939Z,12.50
2022-10-08T16:06:33.112Z,12.40
2022-10-08T16:09:01.794Z,12.40
2022-10-08T16:11:32.132Z,12.30
2022-10-08T16:14:01.806Z,12.30
2022-10-08T16:16:31.306Z,12.20
2022-10-08T16:19:01.087Z,12.20
2022-10-08T16:21:31.029Z,12.20
2022-10-08T16:23:59.383Z,12.20
2022-10-08T16:26:29.023Z,12.20
2022-10-08T16:28:59.883Z,12.20
2022-10-08T16:31:30.443Z,12.20
2022-10-08T16:34:01.008Z,12.20
2022-10-08T16:36:33.879Z,12.20
2022-10-08T16:39:03.547Z,12.20
2022-10-08T16:41:33.214Z,12.20
2022-10-08T16:44:08.622Z,12.20
2022-10-08T16:46:41.463Z,12.30
2022-10-08T16:49:18.312Z,12.50
2022-10-08T16:51:49.153Z,12.60
2022-10-08T16:54:18.912Z,12.60
2022-10-08T16:56:47.902Z,12.50
2022-10-08T16:59:18.995Z,12.50
2022-10-08T17:01:49.305Z,12.50
2022-10-08T17:04:19.631Z,12.50
2022-10-08T17:06:47.844Z,12.50
2022-10-08T17:09:16.082Z,12.50
2022-10-08T17:11:44.051Z,12.50
2022-10-08T17:14:12.513Z,12.50
2022-10-08T17:16:43.348Z,12.50
2022-10-08T17:19:12.348Z,12.40
2022-10-08T17:21:41.620Z,12.40
2022-10-08T17:24:11.928Z,12.40
2022-10-08T17:26:40.534Z,12.40
2022-10-08T17:29:10.290Z,12.30
2022-10-08T17:31:39.266Z,12.30
2022-10-08T17:34:07.669Z,12.20
2022-10-08T17:36:37.043Z,12.10
2022-10-08T17:39:09.033Z,12.10
2022-10-08T17:41:39.696Z,12.00
2022-10-08T17:44:09.757Z,12.00
2022-10-08T17:46:39.282Z,11.90
2022-10-08T17:49:07.559Z,11.90
2022-10-08T17:51:35.628Z,11.90
2022-10-08T17:54:05.702Z,11.80
2022-10-08T17:56:35.922Z,11.80
2022-10-08T17:59:04.535Z,11.70
2022-10-08T18:01:34.485Z,11.70
2022-10-08T18:04:04.904Z,11.70
2022-10-08T18:06:34.621Z,11.70
2022-10-08T18:09:05.056Z,11.70
2022-10-08T18:11:37.051Z,11.60
2022-10-08T18:14:06.535Z,11.60
2022-10-08T18:16:35.220Z,11.60
2022-10-08T18:19:08.391Z,11.50
2022-10-08T18:21:36.899Z,11.50
2022-10-08T18:24:05.154Z,11.60
2022-10-08T18:26:36.854Z,11.50
2022-10-08T18:29:08.801Z,11.50
2022-10-08T18:31:37.478Z,11.50
2022-10-08T18:34:07.154Z,11.40
2022-10-08T18:36:37.131Z,11.40
2022-10-08T18:39:07.302Z,11.40
2022-10-08T18:41:40.568Z,11.40
2022-10-08T18:44:09.855Z,11.40
2022-10-08T18:46:38.727Z,11.30
2022-10-08T18:49:07.296Z,11.30
2022-10-08T18:51:35.588Z,11.30
2022-10-08T18:54:03.540Z,11.30
2022-10-08T18:56:35.300Z,11.20
2022-10-08T18:59:06.915Z,11.20
2022-10-08T19:01:39.139Z,11.20
2022-10-08T19:04:09.688Z,11.10
2022-10-08T19:06:39.383Z,11.10
2022-10-08T19:09:07.950Z,11.10
2022-10-08T19:11:43.380Z,11.10
2022-10-08T19:14:15.752Z,11.10
2022-10-08T19:16:44.325Z,11.10
2022-10-08T19:19:14.959Z,11.10
2022-10-08T19:21:43.603Z,11.10
2022-10-08T19:24:14.375Z,11.10
2022-10-08T19:26:42.301Z,11.10
2022-10-08T19:29:16.845Z,11.10
2022-10-08T19:31:47.251Z,11.10
2022-10-08T19:34:16.403Z,11.00
2022-10-08T19:36:44.272Z,11.00
2022-10-08T19:39:14.245Z,11.10
2022-10-08T19:41:42.859Z,11.00
2022-10-08T19:44:11.564Z,11.00
2022-10-08T19:46:40.914Z,11.00
2022-10-08T19:49:09.753Z,11.00
2022-10-08T19:51:39.001Z,11.00
2022-10-08T19:54:07.482Z,11.00
2022-10-08T19:56:35.927Z,10.90
2022-10-08T19:59:04.455Z,11.00
2022-10-08T20:01:34.532Z,11.00
2022-10-08T20:04:05.938Z,10.90
2022-10-08T20:06:38.537Z,10.90
2022-10-08T20:09:10.141Z,10.90
2022-10-08T20:11:38.467Z,10.90
2022-10-08T20:14:06.413Z,10.90
2022-10-08T20:16:36.720Z,10.90
2022-10-08T20:19:08.631Z,10.90
2022-10-08T20:21:38.277Z,10.90
2022-10-08T20:24:09.105Z,10.90
2022-10-08T20:26:38.673Z,10.90
2022-10-08T20:29:08.865Z,10.80
2022-10-08T20:31:38.817Z,10.80
2022-10-08T20:34:10.893Z,10.80
2022-10-08T20:36:39.071Z,10.80
2022-10-08T20:39:07.772Z,10.90
2022-10-08T20:41:35.798Z,10.90
2022-10-08T20:44:05.324Z,10.90
2022-10-08T20:46:33.477Z,10.90
2022-10-08T20:49:01.508Z,10.90
2022-10-08T20:51:32.048Z,10.90
2022-10-08T20:54:02.109Z,10.90
2022-10-08T20:56:35.827Z,10.90
2022-10-08T20:59:07.360Z,10.90
2022-10-08T21:01:38.667Z,10.90
2022-10-08T21:04:07.745Z,10.90
2022-10-08T21:06:40.262Z,10.80
2022-10-08T21:09:08.822Z,10.80
2022-10-08T21:11:37.609Z,10.80
2022-10-08T21:14:07.500Z,10.80
2022-10-08T21:16:38.351Z,10.70
2022-10-08T21:19:11.074Z,10.70
2022-10-08T21:21:42.176Z,10.70
2022-10-08T21:24:10.965Z,10.70
2022-10-08T21:26:41.891Z,10.70
2022-10-08T21:29:11.749Z,10.60
2022-10-08T21:31:40.917Z,10.60
2022-10-08T21:34:09.651Z,10.60
2022-10-08T21:36:40.618Z,10.50
2022-10-08T21:39:11.562Z,10.60
2022-10-08T21:41:39.576Z,10.60
2022-10-08T21:44:09.109Z,10.60
2022-10-08T21:46:39.405Z,10.60
2022-10-08T21:49:09.135Z,10.50
2022-10-08T21:51:37.150Z,10.50
2022-10-08T21:54:07.403Z,10.50
2022-10-08T21:56:37.504Z,10.40
2022-10-08T21:59:06.890Z,10.40
2022-10-08T22:01:38.195Z,10.40
2022-10-08T22:04:09.082Z,10.40
2022-10-08T22:06:39.402Z,10.40
2022-10-08T22:09:10.795Z,10.40
2022-10-08T22:11:39.029Z,10.30
2022-10-08T22:14:07.743Z,10.30
2022-10-08T22:16:37.218Z,10.30
2022-10-08T22:19:05.637Z,10.30
2022-10-08T22:21:34.144Z,10.30
2022-10-08T22:24:02.547Z,10.30
2022-10-08T22:26:33.487Z,10.30
2022-10-08T22:29:01.972Z,10.20
2022-10-08T22:31:30.146Z,10.20
2022-10-08T22:33:58.107Z,10.20
2022-10-08T22:36:28.130Z,10.20
2022-10-08T22:38:56.888Z,10.20
2022-10-08T22:41:27.205Z,10.20
2022-10-08T22:43:56.801Z,10.20
2022-10-08T22:46:26.664Z,10.20
2022-10-08T22:48:58.072Z,10.20
2022-10-08T22:51:26.006Z,10.20
2022-10-08T22:53:54.092Z,10.20
2022-10-08T22:56:24.392Z,10.20
2022-10-08T22:58:52.976Z,10.20
2022-10-08T23:01:23.569Z,10.20
2022-10-08T23:03:52.294Z,10.20
2022-10-08T23:06:22.648Z,10.20
2022-10-08T23:08:55.256Z,10.20
2022-10-08T23:11:23.485Z,10.20
2022-10-08T23:13:52.041Z,10.20
2022-10-08T23:16:22.116Z,10.20
2022-10-08T23:18:56.102Z,10.20
2022-10-08T23:21:24.859Z,10.10
2022-10-08T23:23:53.683Z,10.20
2022-10-08T23:26:22.500Z,10.10
2022-10-08T23:28:52.286Z,10.10
2022-10-08T23:31:23.196Z,10.10
2022-10-08T23:33:52.863Z,10.10
2022-10-08T23:36:23.284Z,10.10
2022-10-08T23:38:52.020Z,10.10
2022-10-08T23:41:20.253Z,10.10
2022-10-08T23:43:49.663Z,10.00
2022-10-08T23:46:19.687Z,10.00
2022-10-08T23:48:49.247Z,10.00
2022-10-08T23:51:17.964Z,10.00
2022-10-08T23:53:46.715Z,10.00
2022-10-08T23:56:15.735Z,10.00
2022-10-08T23:58:43.695Z,10.00
